sensor_id;sensor_type;location;lat;lon;timestamp;P1;durP1;ratioP1;P2;durP2;ratioP2
12308;SDS011;6217;48.150;17.142;2023-05-20T00:04:01;5.05;;;4.20;;
12308;SDS011;6217;48.150;17.142;2023-05-20T00:08:07;4.60;;;4.20;;
12308;SDS011;6217;48.150;17.142;2023-05-20T00:12:15;5.03;;;4.05;;
12308;SDS011;6217;48.150;17.142;2023-05-20T00:16:20;5.30;;;4.65;;
12308;SDS011;6217;48.150;17.142;2023-05-20T00:20:26;5.90;;;5.28;;
12308;SDS011;6217;48.150;17.142;2023-05-20T00:24:32;7.32;;;5.05;;
12308;SDS011;6217;48.150;17.142;2023-05-20T00:28:38;5.32;;;4.65;;
12308;SDS011;6217;48.150;17.142;2023-05-20T00:32:44;5.35;;;4.80;;
12308;SDS011;6217;48.150;17.142;2023-05-20T00:36:50;8.32;;;4.97;;
12308;SDS011;6217;48.150;17.142;2023-05-20T00:40:56;6.15;;;4.38;;
12308;SDS011;6217;48.150;17.142;2023-05-20T00:45:02;7.38;;;3.88;;
12308;SDS011;6217;48.150;17.142;2023-05-20T00:49:08;4.22;;;3.38;;
12308;SDS011;6217;48.150;17.142;2023-05-20T00:53:15;4.72;;;3.08;;
12308;SDS011;6217;48.150;17.142;2023-05-20T00:57:22;6.30;;;3.28;;
12308;SDS011;6217;48.150;17.142;2023-05-20T01:01:29;5.63;;;3.10;;
12308;SDS011;6217;48.150;17.142;2023-05-20T01:05:35;5.85;;;2.63;;
12308;SDS011;6217;48.150;17.142;2023-05-20T01:09:41;3.92;;;3.22;;
12308;SDS011;6217;48.150;17.142;2023-05-20T01:13:50;4.75;;;3.35;;
12308;SDS011;6217;48.150;17.142;2023-05-20T01:18:02;3.70;;;2.78;;
12308;SDS011;6217;48.150;17.142;2023-05-20T01:22:14;5.00;;;3.33;;
12308;SDS011;6217;48.150;17.142;2023-05-20T01:26:21;4.85;;;3.05;;
12308;SDS011;6217;48.150;17.142;2023-05-20T01:30:34;4.85;;;3.97;;
12308;SDS011;6217;48.150;17.142;2023-05-20T01:34:50;4.50;;;2.95;;
12308;SDS011;6217;48.150;17.142;2023-05-20T01:38:57;4.53;;;3.03;;
12308;SDS011;6217;48.150;17.142;2023-05-20T01:43:06;5.93;;;3.70;;
12308;SDS011;6217;48.150;17.142;2023-05-20T01:47:14;6.55;;;3.88;;
12308;SDS011;6217;48.150;17.142;2023-05-20T01:51:20;3.13;;;2.80;;
12308;SDS011;6217;48.150;17.142;2023-05-20T01:55:26;6.53;;;3.15;;
12308;SDS011;6217;48.150;17.142;2023-05-20T01:59:33;4.18;;;3.83;;
12308;SDS011;6217;48.150;17.142;2023-05-20T02:03:39;4.43;;;3.67;;
12308;SDS011;6217;48.150;17.142;2023-05-20T02:07:45;3.88;;;3.47;;
12308;SDS011;6217;48.150;17.142;2023-05-20T02:11:51;4.32;;;3.50;;
12308;SDS011;6217;48.150;17.142;2023-05-20T02:15:57;6.85;;;5.25;;
12308;SDS011;6217;48.150;17.142;2023-05-20T02:20:03;6.22;;;3.75;;
12308;SDS011;6217;48.150;17.142;2023-05-20T02:24:13;6.40;;;3.50;;
12308;SDS011;6217;48.150;17.142;2023-05-20T02:28:19;5.50;;;4.22;;
12308;SDS011;6217;48.150;17.142;2023-05-20T02:32:25;5.32;;;4.22;;
12308;SDS011;6217;48.150;17.142;2023-05-20T02:36:32;6.20;;;5.15;;
12308;SDS011;6217;48.150;17.142;2023-05-20T02:40:43;8.23;;;4.25;;
12308;SDS011;6217;48.150;17.142;2023-05-20T02:44:49;6.25;;;4.60;;
12308;SDS011;6217;48.150;17.142;2023-05-20T02:48:55;5.80;;;5.00;;
12308;SDS011;6217;48.150;17.142;2023-05-20T02:53:01;8.23;;;4.57;;
12308;SDS011;6217;48.150;17.142;2023-05-20T02:57:08;5.05;;;4.55;;
12308;SDS011;6217;48.150;17.142;2023-05-20T03:01:13;4.85;;;4.38;;
12308;SDS011;6217;48.150;17.142;2023-05-20T03:05:19;6.82;;;4.50;;
12308;SDS011;6217;48.150;17.142;2023-05-20T03:09:26;5.65;;;5.20;;
12308;SDS011;6217;48.150;17.142;2023-05-20T03:13:33;5.38;;;4.88;;
12308;SDS011;6217;48.150;17.142;2023-05-20T03:17:39;8.70;;;4.88;;
12308;SDS011;6217;48.150;17.142;2023-05-20T03:21:45;7.80;;;5.72;;
12308;SDS011;6217;48.150;17.142;2023-05-20T03:25:52;5.40;;;4.88;;
12308;SDS011;6217;48.150;17.142;2023-05-20T03:29:57;5.90;;;4.88;;
12308;SDS011;6217;48.150;17.142;2023-05-20T03:34:03;8.85;;;5.30;;
12308;SDS011;6217;48.150;17.142;2023-05-20T03:38:09;5.15;;;4.28;;
12308;SDS011;6217;48.150;17.142;2023-05-20T03:42:17;5.05;;;4.65;;
12308;SDS011;6217;48.150;17.142;2023-05-20T03:46:23;7.07;;;4.15;;
12308;SDS011;6217;48.150;17.142;2023-05-20T03:50:29;7.55;;;4.53;;
12308;SDS011;6217;48.150;17.142;2023-05-20T03:54:35;6.95;;;4.97;;
12308;SDS011;6217;48.150;17.142;2023-05-20T03:58:43;5.35;;;4.53;;
12308;SDS011;6217;48.150;17.142;2023-05-20T04:02:49;5.55;;;4.75;;
12308;SDS011;6217;48.150;17.142;2023-05-20T04:06:57;5.88;;;5.20;;
12308;SDS011;6217;48.150;17.142;2023-05-20T04:11:07;5.03;;;4.60;;
12308;SDS011;6217;48.150;17.142;2023-05-20T04:15:13;4.80;;;4.18;;
12308;SDS011;6217;48.150;17.142;2023-05-20T04:19:28;6.40;;;4.97;;
12308;SDS011;6217;48.150;17.142;2023-05-20T04:23:34;7.35;;;4.40;;
12308;SDS011;6217;48.150;17.142;2023-05-20T04:27:40;5.85;;;5.25;;
12308;SDS011;6217;48.150;17.142;2023-05-20T04:31:46;8.60;;;5.35;;
12308;SDS011;6217;48.150;17.142;2023-05-20T04:35:52;6.28;;;4.72;;
12308;SDS011;6217;48.150;17.142;2023-05-20T04:40:03;5.40;;;4.90;;
12308;SDS011;6217;48.150;17.142;2023-05-20T04:44:13;8.07;;;4.70;;
12308;SDS011;6217;48.150;17.142;2023-05-20T04:48:19;6.95;;;5.05;;
12308;SDS011;6217;48.150;17.142;2023-05-20T04:52:26;5.70;;;4.95;;
12308;SDS011;6217;48.150;17.142;2023-05-20T04:56:32;6.55;;;4.65;;
12308;SDS011;6217;48.150;17.142;2023-05-20T05:00:38;7.22;;;4.63;;
12308;SDS011;6217;48.150;17.142;2023-05-20T05:04:48;6.78;;;4.90;;
12308;SDS011;6217;48.150;17.142;2023-05-20T05:08:55;5.22;;;4.78;;
12308;SDS011;6217;48.150;17.142;2023-05-20T05:13:01;6.30;;;4.75;;
12308;SDS011;6217;48.150;17.142;2023-05-20T05:17:07;6.43;;;4.78;;
12308;SDS011;6217;48.150;17.142;2023-05-20T05:21:14;4.88;;;3.75;;
12308;SDS011;6217;48.150;17.142;2023-05-20T05:25:20;6.63;;;4.20;;
12308;SDS011;6217;48.150;17.142;2023-05-20T05:29:26;6.07;;;4.38;;
12308;SDS011;6217;48.150;17.142;2023-05-20T05:33:33;3.75;;;3.45;;
12308;SDS011;6217;48.150;17.142;2023-05-20T05:37:39;3.50;;;2.88;;
12308;SDS011;6217;48.150;17.142;2023-05-20T05:41:45;3.45;;;3.15;;
12308;SDS011;6217;48.150;17.142;2023-05-20T05:45:51;3.20;;;2.90;;
12308;SDS011;6217;48.150;17.142;2023-05-20T05:49:58;3.70;;;3.13;;
12308;SDS011;6217;48.150;17.142;2023-05-20T05:54:05;5.28;;;3.13;;
12308;SDS011;6217;48.150;17.142;2023-05-20T05:58:11;4.70;;;3.15;;
12308;SDS011;6217;48.150;17.142;2023-05-20T06:02:17;4.32;;;2.60;;
12308;SDS011;6217;48.150;17.142;2023-05-20T06:06:23;3.22;;;2.97;;
12308;SDS011;6217;48.150;17.142;2023-05-20T06:10:29;3.60;;;3.05;;
12308;SDS011;6217;48.150;17.142;2023-05-20T06:14:35;3.20;;;2.63;;
12308;SDS011;6217;48.150;17.142;2023-05-20T06:18:41;3.50;;;3.20;;
12308;SDS011;6217;48.150;17.142;2023-05-20T06:22:47;3.90;;;3.10;;
12308;SDS011;6217;48.150;17.142;2023-05-20T06:26:54;3.35;;;3.05;;
12308;SDS011;6217;48.150;17.142;2023-05-20T06:30:59;6.82;;;2.95;;
12308;SDS011;6217;48.150;17.142;2023-05-20T06:35:11;5.18;;;4.47;;
12308;SDS011;6217;48.150;17.142;2023-05-20T06:39:17;5.20;;;3.35;;
12308;SDS011;6217;48.150;17.142;2023-05-20T06:43:24;5.80;;;3.60;;
12308;SDS011;6217;48.150;17.142;2023-05-20T06:47:43;4.22;;;3.70;;
12308;SDS011;6217;48.150;17.142;2023-05-20T06:51:49;3.30;;;3.00;;
12308;SDS011;6217;48.150;17.142;2023-05-20T06:55:55;8.57;;;3.95;;
12308;SDS011;6217;48.150;17.142;2023-05-20T07:00:02;4.20;;;2.70;;
12308;SDS011;6217;48.150;17.142;2023-05-20T07:04:11;4.18;;;2.70;;
12308;SDS011;6217;48.150;17.142;2023-05-20T07:08:17;6.72;;;3.38;;
12308;SDS011;6217;48.150;17.142;2023-05-20T07:12:24;4.75;;;4.05;;
12308;SDS011;6217;48.150;17.142;2023-05-20T07:16:30;6.35;;;3.67;;
12308;SDS011;6217;48.150;17.142;2023-05-20T07:20:37;3.90;;;3.58;;
12308;SDS011;6217;48.150;17.142;2023-05-20T07:24:48;6.50;;;3.90;;
12308;SDS011;6217;48.150;17.142;2023-05-20T07:28:54;4.85;;;3.85;;
12308;SDS011;6217;48.150;17.142;2023-05-20T07:33:01;5.78;;;4.03;;
12308;SDS011;6217;48.150;17.142;2023-05-20T07:37:07;4.38;;;3.97;;
12308;SDS011;6217;48.150;17.142;2023-05-20T07:41:14;8.48;;;4.38;;
12308;SDS011;6217;48.150;17.142;2023-05-20T07:45:20;5.68;;;5.18;;
12308;SDS011;6217;48.150;17.142;2023-05-20T07:49:27;7.85;;;4.57;;
12308;SDS011;6217;48.150;17.142;2023-05-20T07:53:33;5.68;;;5.18;;
12308;SDS011;6217;48.150;17.142;2023-05-20T07:57:39;6.65;;;5.35;;
12308;SDS011;6217;48.150;17.142;2023-05-20T08:01:45;5.20;;;4.68;;
12308;SDS011;6217;48.150;17.142;2023-05-20T08:05:53;9.57;;;5.20;;
12308;SDS011;6217;48.150;17.142;2023-05-20T08:10:00;7.50;;;5.68;;
12308;SDS011;6217;48.150;17.142;2023-05-20T08:14:07;9.07;;;7.22;;
12308;SDS011;6217;48.150;17.142;2023-05-20T08:18:19;5.95;;;5.07;;
12308;SDS011;6217;48.150;17.142;2023-05-20T08:22:25;6.65;;;5.68;;
12308;SDS011;6217;48.150;17.142;2023-05-20T08:26:31;9.15;;;5.70;;
12308;SDS011;6217;48.150;17.142;2023-05-20T08:30:37;8.32;;;7.07;;
12308;SDS011;6217;48.150;17.142;2023-05-20T08:34:43;8.07;;;4.63;;
12308;SDS011;6217;48.150;17.142;2023-05-20T08:38:49;8.05;;;6.13;;
12308;SDS011;6217;48.150;17.142;2023-05-20T08:42:56;5.25;;;4.65;;
12308;SDS011;6217;48.150;17.142;2023-05-20T08:47:03;15.23;;;5.68;;
12308;SDS011;6217;48.150;17.142;2023-05-20T08:51:12;8.65;;;5.10;;
12308;SDS011;6217;48.150;17.142;2023-05-20T08:55:24;5.03;;;4.53;;
12308;SDS011;6217;48.150;17.142;2023-05-20T08:59:43;5.38;;;4.18;;
12308;SDS011;6217;48.150;17.142;2023-05-20T09:03:50;5.03;;;4.53;;
12308;SDS011;6217;48.150;17.142;2023-05-20T09:08:07;8.13;;;4.38;;
12308;SDS011;6217;48.150;17.142;2023-05-20T09:12:14;5.30;;;4.72;;
12308;SDS011;6217;48.150;17.142;2023-05-20T09:16:20;6.13;;;4.55;;
12308;SDS011;6217;48.150;17.142;2023-05-20T09:20:26;5.40;;;4.90;;
12308;SDS011;6217;48.150;17.142;2023-05-20T09:24:35;5.90;;;4.63;;
12308;SDS011;6217;48.150;17.142;2023-05-20T09:28:41;7.82;;;5.28;;
12308;SDS011;6217;48.150;17.142;2023-05-20T09:32:54;4.28;;;3.83;;
12308;SDS011;6217;48.150;17.142;2023-05-20T09:37:01;9.05;;;4.97;;
12308;SDS011;6217;48.150;17.142;2023-05-20T09:41:11;5.03;;;4.07;;
12308;SDS011;6217;48.150;17.142;2023-05-20T09:45:18;6.35;;;5.75;;
12308;SDS011;6217;48.150;17.142;2023-05-20T09:49:24;4.88;;;4.47;;
12308;SDS011;6217;48.150;17.142;2023-05-20T09:53:33;9.68;;;4.30;;
12308;SDS011;6217;48.150;17.142;2023-05-20T09:57:39;4.78;;;4.35;;
12308;SDS011;6217;48.150;17.142;2023-05-20T10:01:45;6.47;;;5.05;;
12308;SDS011;6217;48.150;17.142;2023-05-20T10:05:54;6.13;;;3.90;;
12308;SDS011;6217;48.150;17.142;2023-05-20T10:14:54;4.43;;;4.03;;
12308;SDS011;6217;48.150;17.142;2023-05-20T10:23:37;5.15;;;3.88;;
12308;SDS011;6217;48.150;17.142;2023-05-20T10:27:46;5.53;;;5.03;;
12308;SDS011;6217;48.150;17.142;2023-05-20T10:31:52;5.30;;;4.47;;
12308;SDS011;6217;48.150;17.142;2023-05-20T10:35:59;7.07;;;4.60;;
12308;SDS011;6217;48.150;17.142;2023-05-20T10:44:15;5.50;;;4.38;;
12308;SDS011;6217;48.150;17.142;2023-05-20T10:52:35;6.10;;;5.28;;
12308;SDS011;6217;48.150;17.142;2023-05-20T10:56:50;5.70;;;4.13;;
12308;SDS011;6217;48.150;17.142;2023-05-20T11:00:57;7.07;;;4.18;;
12308;SDS011;6217;48.150;17.142;2023-05-20T11:05:03;6.93;;;3.95;;
12308;SDS011;6217;48.150;17.142;2023-05-20T11:09:10;5.32;;;4.25;;
12308;SDS011;6217;48.150;17.142;2023-05-20T11:13:17;5.40;;;4.93;;
12308;SDS011;6217;48.150;17.142;2023-05-20T11:17:22;10.15;;;4.90;;
12308;SDS011;6217;48.150;17.142;2023-05-20T11:21:28;4.55;;;4.13;;
12308;SDS011;6217;48.150;17.142;2023-05-20T11:25:35;6.47;;;4.32;;
12308;SDS011;6217;48.150;17.142;2023-05-20T11:29:41;4.80;;;4.32;;
12308;SDS011;6217;48.150;17.142;2023-05-20T11:33:49;6.60;;;4.85;;
12308;SDS011;6217;48.150;17.142;2023-05-20T11:37:56;4.95;;;4.20;;
12308;SDS011;6217;48.150;17.142;2023-05-20T11:42:10;5.03;;;4.32;;
12308;SDS011;6217;48.150;17.142;2023-05-20T11:46:16;5.43;;;4.25;;
12308;SDS011;6217;48.150;17.142;2023-05-20T11:50:25;5.50;;;3.97;;
12308;SDS011;6217;48.150;17.142;2023-05-20T11:54:34;8.50;;;4.78;;
12308;SDS011;6217;48.150;17.142;2023-05-20T11:58:42;7.03;;;4.28;;
12308;SDS011;6217;48.150;17.142;2023-05-20T12:02:48;15.50;;;3.95;;
12308;SDS011;6217;48.150;17.142;2023-05-20T12:06:54;14.80;;;6.72;;
12308;SDS011;6217;48.150;17.142;2023-05-20T12:11:00;4.25;;;3.72;;
12308;SDS011;6217;48.150;17.142;2023-05-20T12:15:06;8.43;;;3.83;;
12308;SDS011;6217;48.150;17.142;2023-05-20T12:19:13;5.25;;;4.50;;
12308;SDS011;6217;48.150;17.142;2023-05-20T12:23:19;5.65;;;4.38;;
12308;SDS011;6217;48.150;17.142;2023-05-20T12:27:25;5.55;;;5.10;;
12308;SDS011;6217;48.150;17.142;2023-05-20T12:31:32;5.78;;;4.32;;
12308;SDS011;6217;48.150;17.142;2023-05-20T12:35:38;5.18;;;3.67;;
12308;SDS011;6217;48.150;17.142;2023-05-20T12:39:46;6.00;;;4.03;;
12308;SDS011;6217;48.150;17.142;2023-05-20T12:43:52;5.65;;;5.05;;
12308;SDS011;6217;48.150;17.142;2023-05-20T12:47:58;6.72;;;4.07;;
12308;SDS011;6217;48.150;17.142;2023-05-20T12:52:04;4.95;;;4.53;;
12308;SDS011;6217;48.150;17.142;2023-05-20T12:56:10;10.35;;;5.03;;
12308;SDS011;6217;48.150;17.142;2023-05-20T13:00:16;5.25;;;4.78;;
12308;SDS011;6217;48.150;17.142;2023-05-20T13:04:22;6.03;;;4.68;;
12308;SDS011;6217;48.150;17.142;2023-05-20T13:08:28;5.90;;;5.22;;
12308;SDS011;6217;48.150;17.142;2023-05-20T13:12:34;4.50;;;4.10;;
12308;SDS011;6217;48.150;17.142;2023-05-20T13:16:41;5.75;;;4.05;;
12308;SDS011;6217;48.150;17.142;2023-05-20T13:20:47;6.78;;;5.25;;
12308;SDS011;6217;48.150;17.142;2023-05-20T13:24:52;4.85;;;4.07;;
12308;SDS011;6217;48.150;17.142;2023-05-20T13:28:58;4.82;;;4.35;;
12308;SDS011;6217;48.150;17.142;2023-05-20T13:33:04;6.57;;;5.55;;
12308;SDS011;6217;48.150;17.142;2023-05-20T13:37:11;5.97;;;5.38;;
12308;SDS011;6217;48.150;17.142;2023-05-20T13:41:16;5.32;;;4.57;;
12308;SDS011;6217;48.150;17.142;2023-05-20T13:45:22;8.00;;;5.60;;
12308;SDS011;6217;48.150;17.142;2023-05-20T13:49:28;10.82;;;5.03;;
12308;SDS011;6217;48.150;17.142;2023-05-20T13:53:34;4.63;;;4.32;;
12308;SDS011;6217;48.150;17.142;2023-05-20T13:57:41;6.47;;;5.18;;
12308;SDS011;6217;48.150;17.142;2023-05-20T14:01:47;5.65;;;5.10;;
12308;SDS011;6217;48.150;17.142;2023-05-20T14:05:53;6.03;;;5.00;;
12308;SDS011;6217;48.150;17.142;2023-05-20T14:10:00;7.50;;;5.05;;
12308;SDS011;6217;48.150;17.142;2023-05-20T14:14:06;7.55;;;4.70;;
12308;SDS011;6217;48.150;17.142;2023-05-20T14:18:11;6.65;;;4.95;;
12308;SDS011;6217;48.150;17.142;2023-05-20T14:22:17;11.27;;;4.88;;
12308;SDS011;6217;48.150;17.142;2023-05-20T14:26:24;5.38;;;4.88;;
12308;SDS011;6217;48.150;17.142;2023-05-20T14:30:29;8.25;;;5.00;;
12308;SDS011;6217;48.150;17.142;2023-05-20T14:34:35;5.32;;;4.63;;
12308;SDS011;6217;48.150;17.142;2023-05-20T14:38:41;7.72;;;4.88;;
12308;SDS011;6217;48.150;17.142;2023-05-20T14:42:47;5.90;;;4.47;;
12308;SDS011;6217;48.150;17.142;2023-05-20T14:46:53;6.50;;;5.13;;
12308;SDS011;6217;48.150;17.142;2023-05-20T14:50:59;5.45;;;4.43;;
12308;SDS011;6217;48.150;17.142;2023-05-20T14:55:05;6.90;;;5.25;;
12308;SDS011;6217;48.150;17.142;2023-05-20T14:59:12;6.57;;;4.95;;
12308;SDS011;6217;48.150;17.142;2023-05-20T15:03:18;8.02;;;4.80;;
12308;SDS011;6217;48.150;17.142;2023-05-20T15:07:24;5.68;;;5.13;;
12308;SDS011;6217;48.150;17.142;2023-05-20T15:11:30;9.80;;;4.85;;
12308;SDS011;6217;48.150;17.142;2023-05-20T15:15:36;6.05;;;4.85;;
12308;SDS011;6217;48.150;17.142;2023-05-20T15:19:42;5.57;;;4.35;;
12308;SDS011;6217;48.150;17.142;2023-05-20T15:23:48;9.00;;;5.35;;
12308;SDS011;6217;48.150;17.142;2023-05-20T15:27:54;6.70;;;4.95;;
12308;SDS011;6217;48.150;17.142;2023-05-20T15:32:00;6.13;;;5.25;;
12308;SDS011;6217;48.150;17.142;2023-05-20T15:36:06;7.00;;;5.47;;
12308;SDS011;6217;48.150;17.142;2023-05-20T15:40:12;5.65;;;5.20;;
12308;SDS011;6217;48.150;17.142;2023-05-20T15:44:18;7.30;;;6.07;;
12308;SDS011;6217;48.150;17.142;2023-05-20T15:48:24;6.30;;;5.22;;
12308;SDS011;6217;48.150;17.142;2023-05-20T15:52:30;6.22;;;5.07;;
12308;SDS011;6217;48.150;17.142;2023-05-20T15:56:36;5.93;;;5.43;;
12308;SDS011;6217;48.150;17.142;2023-05-20T16:00:42;8.85;;;6.80;;
12308;SDS011;6217;48.150;17.142;2023-05-20T16:04:48;8.45;;;4.80;;
12308;SDS011;6217;48.150;17.142;2023-05-20T16:08:54;5.80;;;5.25;;
12308;SDS011;6217;48.150;17.142;2023-05-20T16:13:00;7.63;;;5.15;;
12308;SDS011;6217;48.150;17.142;2023-05-20T16:17:06;6.10;;;5.35;;
12308;SDS011;6217;48.150;17.142;2023-05-20T16:21:12;10.77;;;5.50;;
12308;SDS011;6217;48.150;17.142;2023-05-20T16:25:21;6.22;;;5.63;;
12308;SDS011;6217;48.150;17.142;2023-05-20T16:29:27;10.23;;;6.13;;
12308;SDS011;6217;48.150;17.142;2023-05-20T16:33:33;6.10;;;5.53;;
12308;SDS011;6217;48.150;17.142;2023-05-20T16:37:38;6.78;;;5.25;;
12308;SDS011;6217;48.150;17.142;2023-05-20T16:41:44;9.23;;;5.60;;
12308;SDS011;6217;48.150;17.142;2023-05-20T16:45:50;5.80;;;4.55;;
12308;SDS011;6217;48.150;17.142;2023-05-20T16:49:57;5.53;;;4.88;;
12308;SDS011;6217;48.150;17.142;2023-05-20T16:54:03;4.60;;;4.20;;
12308;SDS011;6217;48.150;17.142;2023-05-20T16:58:09;8.77;;;4.15;;
12308;SDS011;6217;48.150;17.142;2023-05-20T17:02:15;6.63;;;5.20;;
12308;SDS011;6217;48.150;17.142;2023-05-20T17:06:21;7.03;;;4.65;;
12308;SDS011;6217;48.150;17.142;2023-05-20T17:10:28;4.57;;;3.88;;
12308;SDS011;6217;48.150;17.142;2023-05-20T17:14:34;4.93;;;4.47;;
12308;SDS011;6217;48.150;17.142;2023-05-20T17:18:41;4.97;;;4.15;;
12308;SDS011;6217;48.150;17.142;2023-05-20T17:22:47;6.57;;;4.15;;
12308;SDS011;6217;48.150;17.142;2023-05-20T17:26:53;6.65;;;4.65;;
12308;SDS011;6217;48.150;17.142;2023-05-20T17:30:58;5.90;;;4.75;;
12308;SDS011;6217;48.150;17.142;2023-05-20T17:35:05;3.53;;;3.08;;
12308;SDS011;6217;48.150;17.142;2023-05-20T17:39:12;7.13;;;3.17;;
12308;SDS011;6217;48.150;17.142;2023-05-20T17:43:19;4.03;;;2.83;;
12308;SDS011;6217;48.150;17.142;2023-05-20T17:47:25;3.67;;;3.38;;
12308;SDS011;6217;48.150;17.142;2023-05-20T17:51:31;4.90;;;3.22;;
12308;SDS011;6217;48.150;17.142;2023-05-20T17:55:37;3.20;;;2.90;;
12308;SDS011;6217;48.150;17.142;2023-05-20T17:59:43;3.63;;;3.22;;
12308;SDS011;6217;48.150;17.142;2023-05-20T18:03:49;3.67;;;2.83;;
12308;SDS011;6217;48.150;17.142;2023-05-20T18:07:55;5.07;;;2.97;;
12308;SDS011;6217;48.150;17.142;2023-05-20T18:12:01;4.65;;;3.60;;
12308;SDS011;6217;48.150;17.142;2023-05-20T18:16:07;4.90;;;2.70;;
12308;SDS011;6217;48.150;17.142;2023-05-20T18:20:13;4.07;;;3.72;;
12308;SDS011;6217;48.150;17.142;2023-05-20T18:24:19;3.33;;;2.97;;
12308;SDS011;6217;48.150;17.142;2023-05-20T18:28:25;4.75;;;3.10;;
12308;SDS011;6217;48.150;17.142;2023-05-20T18:32:31;4.20;;;3.80;;
12308;SDS011;6217;48.150;17.142;2023-05-20T18:36:37;5.97;;;3.78;;
12308;SDS011;6217;48.150;17.142;2023-05-20T18:40:43;5.68;;;4.22;;
12308;SDS011;6217;48.150;17.142;2023-05-20T18:44:49;6.75;;;4.47;;
12308;SDS011;6217;48.150;17.142;2023-05-20T18:48:55;8.48;;;4.70;;
12308;SDS011;6217;48.150;17.142;2023-05-20T18:53:01;4.68;;;4.20;;
12308;SDS011;6217;48.150;17.142;2023-05-20T18:57:07;6.57;;;4.35;;
12308;SDS011;6217;48.150;17.142;2023-05-20T19:01:13;5.55;;;3.75;;
12308;SDS011;6217;48.150;17.142;2023-05-20T19:05:19;5.75;;;5.15;;
12308;SDS011;6217;48.150;17.142;2023-05-20T19:09:25;10.60;;;4.53;;
12308;SDS011;6217;48.150;17.142;2023-05-20T19:13:31;9.57;;;5.60;;
12308;SDS011;6217;48.150;17.142;2023-05-20T19:17:37;6.32;;;4.88;;
12308;SDS011;6217;48.150;17.142;2023-05-20T19:21:43;5.88;;;4.38;;
12308;SDS011;6217;48.150;17.142;2023-05-20T19:25:50;8.93;;;5.70;;
12308;SDS011;6217;48.150;17.142;2023-05-20T19:29:56;6.90;;;5.30;;
12308;SDS011;6217;48.150;17.142;2023-05-20T19:34:02;6.95;;;5.20;;
12308;SDS011;6217;48.150;17.142;2023-05-20T19:38:08;5.90;;;5.03;;
12308;SDS011;6217;48.150;17.142;2023-05-20T19:42:14;8.77;;;6.65;;
12308;SDS011;6217;48.150;17.142;2023-05-20T19:46:20;8.07;;;6.68;;
12308;SDS011;6217;48.150;17.142;2023-05-20T19:50:26;12.88;;;6.50;;
12308;SDS011;6217;48.150;17.142;2023-05-20T19:54:32;7.47;;;6.75;;
12308;SDS011;6217;48.150;17.142;2023-05-20T19:58:38;9.85;;;7.28;;
12308;SDS011;6217;48.150;17.142;2023-05-20T20:02:44;6.80;;;6.10;;
12308;SDS011;6217;48.150;17.142;2023-05-20T20:06:50;6.68;;;5.97;;
12308;SDS011;6217;48.150;17.142;2023-05-20T20:10:55;7.20;;;6.45;;
12308;SDS011;6217;48.150;17.142;2023-05-20T20:15:02;10.65;;;6.55;;
12308;SDS011;6217;48.150;17.142;2023-05-20T20:19:08;8.60;;;6.53;;
12308;SDS011;6217;48.150;17.142;2023-05-20T20:23:16;9.27;;;7.05;;
12308;SDS011;6217;48.150;17.142;2023-05-20T20:27:22;11.90;;;7.88;;
12308;SDS011;6217;48.150;17.142;2023-05-20T20:31:27;9.18;;;6.55;;
12308;SDS011;6217;48.150;17.142;2023-05-20T20:35:36;10.60;;;7.15;;
12308;SDS011;6217;48.150;17.142;2023-05-20T20:39:42;9.27;;;7.00;;
12308;SDS011;6217;48.150;17.142;2023-05-20T20:43:50;9.52;;;8.13;;
12308;SDS011;6217;48.150;17.142;2023-05-20T20:47:57;9.57;;;6.97;;
12308;SDS011;6217;48.150;17.142;2023-05-20T20:52:05;7.82;;;7.00;;
12308;SDS011;6217;48.150;17.142;2023-05-20T20:56:11;11.57;;;7.55;;
12308;SDS011;6217;48.150;17.142;2023-05-20T21:00:17;18.70;;;7.88;;
12308;SDS011;6217;48.150;17.142;2023-05-20T21:04:27;8.90;;;8.00;;
12308;SDS011;6217;48.150;17.142;2023-05-20T21:08:33;10.38;;;8.88;;
12308;SDS011;6217;48.150;17.142;2023-05-20T21:12:39;10.23;;;8.43;;
12308;SDS011;6217;48.150;17.142;2023-05-20T21:16:45;11.13;;;7.05;;
12308;SDS011;6217;48.150;17.142;2023-05-20T21:20:52;10.25;;;8.70;;
12308;SDS011;6217;48.150;17.142;2023-05-20T21:24:59;10.35;;;8.13;;
12308;SDS011;6217;48.150;17.142;2023-05-20T21:29:05;11.20;;;8.65;;
12308;SDS011;6217;48.150;17.142;2023-05-20T21:33:11;14.88;;;9.77;;
12308;SDS011;6217;48.150;17.142;2023-05-20T21:37:17;9.60;;;8.63;;
12308;SDS011;6217;48.150;17.142;2023-05-20T21:41:23;13.68;;;9.00;;
12308;SDS011;6217;48.150;17.142;2023-05-20T21:45:29;10.75;;;9.07;;
12308;SDS011;6217;48.150;17.142;2023-05-20T21:49:35;10.70;;;9.70;;
12308;SDS011;6217;48.150;17.142;2023-05-20T21:53:40;14.02;;;10.80;;
12308;SDS011;6217;48.150;17.142;2023-05-20T21:57:46;11.50;;;10.35;;
12308;SDS011;6217;48.150;17.142;2023-05-20T22:01:52;11.55;;;9.85;;
12308;SDS011;6217;48.150;17.142;2023-05-20T22:06:00;12.63;;;10.13;;
12308;SDS011;6217;48.150;17.142;2023-05-20T22:10:09;16.30;;;9.73;;
12308;SDS011;6217;48.150;17.142;2023-05-20T22:14:17;11.88;;;10.23;;
12308;SDS011;6217;48.150;17.142;2023-05-20T22:18:23;11.73;;;10.55;;
12308;SDS011;6217;48.150;17.142;2023-05-20T22:22:30;10.18;;;9.18;;
12308;SDS011;6217;48.150;17.142;2023-05-20T22:26:36;12.55;;;10.43;;
12308;SDS011;6217;48.150;17.142;2023-05-20T22:30:43;14.20;;;11.55;;
12308;SDS011;6217;48.150;17.142;2023-05-20T22:34:48;12.32;;;10.98;;
12308;SDS011;6217;48.150;17.142;2023-05-20T22:38:57;12.30;;;11.07;;
12308;SDS011;6217;48.150;17.142;2023-05-20T22:43:05;13.38;;;10.20;;
12308;SDS011;6217;48.150;17.142;2023-05-20T22:47:11;14.98;;;10.80;;
12308;SDS011;6217;48.150;17.142;2023-05-20T22:51:18;12.23;;;10.48;;
12308;SDS011;6217;48.150;17.142;2023-05-20T22:55:28;10.45;;;9.20;;
12308;SDS011;6217;48.150;17.142;2023-05-20T22:59:34;12.57;;;10.98;;
12308;SDS011;6217;48.150;17.142;2023-05-20T23:03:40;10.93;;;9.82;;
12308;SDS011;6217;48.150;17.142;2023-05-20T23:07:48;12.02;;;10.25;;
12308;SDS011;6217;48.150;17.142;2023-05-20T23:11:56;13.43;;;11.13;;
12308;SDS011;6217;48.150;17.142;2023-05-20T23:16:02;12.95;;;11.32;;
12308;SDS011;6217;48.150;17.142;2023-05-20T23:20:10;13.77;;;11.20;;
12308;SDS011;6217;48.150;17.142;2023-05-20T23:24:18;13.80;;;11.63;;
12308;SDS011;6217;48.150;17.142;2023-05-20T23:28:24;17.35;;;11.30;;
12308;SDS011;6217;48.150;17.142;2023-05-20T23:32:30;11.95;;;10.63;;
12308;SDS011;6217;48.150;17.142;2023-05-20T23:36:36;13.73;;;10.60;;
12308;SDS011;6217;48.150;17.142;2023-05-20T23:40:46;13.00;;;11.02;;
12308;SDS011;6217;48.150;17.142;2023-05-20T23:44:53;15.73;;;11.15;;
12308;SDS011;6217;48.150;17.142;2023-05-20T23:48:59;13.70;;;11.38;;
12308;SDS011;6217;48.150;17.142;2023-05-20T23:53:05;13.15;;;11.75;;
12308;SDS011;6217;48.150;17.142;2023-05-20T23:57:11;12.57;;;11.23;;
